sensor_id;sensor_type;location;lat;lon;timestamp;pressure;altitude;pressure_sealevel;temperature;humidity
37764;BME280;23602;51.084;7.090;2023-01-05T00:02:08;100190.59;;;10.18;100.00
37764;BME280;23602;51.084;7.090;2023-01-05T00:04:35;100177.78;;;10.13;100.00
37764;BME280;23602;51.084;7.090;2023-01-05T00:07:01;100199.47;;;10.19;100.00
37764;BME280;23602;51.084;7.090;2023-01-05T00:09:28;100189.53;;;10.12;100.00
37764;BME280;23602;51.084;7.090;2023-01-05T00:11:54;100204.81;;;10.12;100.00
37764;BME280;23602;51.084;7.090;2023-01-05T00:14:38;100215.38;;;10.20;100.00
37764;BME280;23602;51.084;7.090;2023-01-05T00:17:23;100219.31;;;10.24;100.00
37764;BME280;23602;51.084;7.090;2023-01-05T00:20:34;100231.47;;;10.20;100.00
37764;BME280;23602;51.084;7.090;2023-01-05T00:23:18;100227.13;;;10.12;100.00
37764;BME280;23602;51.084;7.090;2023-01-05T00:25:44;100234.38;;;10.25;100.00
37764;BME280;23602;51.084;7.090;2023-01-05T00:28:10;100225.91;;;10.15;100.00
37764;BME280;23602;51.084;7.090;2023-01-05T00:30:45;100227.72;;;10.08;100.00
37764;BME280;23602;51.084;7.090;2023-01-05T00:33:16;100221.94;;;10.11;100.00
37764;BME280;23602;51.084;7.090;2023-01-05T00:35:43;100220.13;;;10.18;100.00
37764;BME280;23602;51.084;7.090;2023-01-05T00:38:16;100210.59;;;10.09;100.00
37764;BME280;23602;51.084;7.090;2023-01-05T00:40:51;100217.59;;;10.10;100.00
37764;BME280;23602;51.084;7.090;2023-01-05T00:43:19;100224.47;;;10.19;100.00
37764;BME280;23602;51.084;7.090;2023-01-05T00:45:45;100200.88;;;10.01;100.00
37764;BME280;23602;51.084;7.090;2023-01-05T00:48:10;100197.97;;;10.03;100.00
37764;BME280;23602;51.084;7.090;2023-01-05T00:50:36;100204.38;;;10.02;100.00
37764;BME280;23602;51.084;7.090;2023-01-05T00:53:03;100214.91;;;10.10;100.00
37764;BME280;23602;51.084;7.090;2023-01-05T00:55:31;100205.41;;;10.01;100.00
37764;BME280;23602;51.084;7.090;2023-01-05T00:58:01;100220.28;;;10.10;100.00
37764;BME280;23602;51.084;7.090;2023-01-05T01:00:34;100212.22;;;10.03;100.00
37764;BME280;23602;51.084;7.090;2023-01-05T01:03:02;100224.22;;;10.01;100.00
37764;BME280;23602;51.084;7.090;2023-01-05T01:05:30;100222.09;;;9.90;100.00
37764;BME280;23602;51.084;7.090;2023-01-05T01:07:56;100221.50;;;9.88;100.00
37764;BME280;23602;51.084;7.090;2023-01-05T01:10:21;100226.69;;;9.96;100.00
37764;BME280;23602;51.084;7.090;2023-01-05T01:12:46;100229.75;;;9.93;100.00
37764;BME280;23602;51.084;7.090;2023-01-05T01:15:12;100239.47;;;10.00;100.00
37764;BME280;23602;51.084;7.090;2023-01-05T01:17:40;100250.66;;;10.04;100.00
37764;BME280;23602;51.084;7.090;2023-01-05T01:20:06;100238.44;;;9.95;100.00
37764;BME280;23602;51.084;7.090;2023-01-05T01:22:31;100235.34;;;9.98;100.00
37764;BME280;23602;51.084;7.090;2023-01-05T01:24:57;100235.75;;;9.88;100.00
37764;BME280;23602;51.084;7.090;2023-01-05T01:27:22;100252.91;;;9.94;100.00
37764;BME280;23602;51.084;7.090;2023-01-05T01:29:47;100249.16;;;9.95;100.00
37764;BME280;23602;51.084;7.090;2023-01-05T01:32:13;100258.88;;;9.96;100.00
37764;BME280;23602;51.084;7.090;2023-01-05T01:34:38;100249.16;;;9.95;100.00
37764;BME280;23602;51.084;7.090;2023-01-05T01:37:04;100242.97;;;9.88;100.00
37764;BME280;23602;51.084;7.090;2023-01-05T01:39:29;100242.16;;;9.94;100.00
37764;BME280;23602;51.084;7.090;2023-01-05T01:41:55;100240.72;;;9.98;100.00
37764;BME280;23602;51.084;7.090;2023-01-05T01:47:13;100246.69;;;10.00;100.00
37764;BME280;23602;51.084;7.090;2023-01-05T01:49:42;100244.19;;;9.85;100.00
37764;BME280;23602;51.084;7.090;2023-01-05T01:52:07;100250.22;;;9.94;100.00
37764;BME280;23602;51.084;7.090;2023-01-05T01:54:33;100248.94;;;9.90;100.00
37764;BME280;23602;51.084;7.090;2023-01-05T01:56:58;100269.81;;;9.88;100.00
37764;BME280;23602;51.084;7.090;2023-01-05T01:59:25;100263.00;;;9.92;100.00
37764;BME280;23602;51.084;7.090;2023-01-05T02:01:53;100269.81;;;9.88;100.00
37764;BME280;23602;51.084;7.090;2023-01-05T02:04:26;100267.34;;;9.86;100.00
37764;BME280;23602;51.084;7.090;2023-01-05T02:06:52;100272.06;;;9.84;100.00
37764;BME280;23602;51.084;7.090;2023-01-05T02:09:17;100261.31;;;9.84;100.00
37764;BME280;23602;51.084;7.090;2023-01-05T02:11:53;100261.53;;;9.83;100.00
37764;BME280;23602;51.084;7.090;2023-01-05T02:14:31;100260.31;;;9.85;100.00
37764;BME280;23602;51.084;7.090;2023-01-05T02:17:24;100269.59;;;9.89;100.00
37764;BME280;23602;51.084;7.090;2023-01-05T02:20:28;100268.13;;;9.80;100.00
37764;BME280;23602;51.084;7.090;2023-01-05T02:31:17;100272.44;;;9.75;100.00
37764;BME280;23602;51.084;7.090;2023-01-05T02:34:13;100267.91;;;9.75;100.00
37764;BME280;23602;51.084;7.090;2023-01-05T02:36:50;100283.00;;;9.76;100.00
37764;BME280;23602;51.084;7.090;2023-01-05T02:39:23;100270.38;;;9.77;100.00
37764;BME280;23602;51.084;7.090;2023-01-05T02:42:00;100282.34;;;9.74;100.00
37764;BME280;23602;51.084;7.090;2023-01-05T02:44:29;100288.53;;;9.68;100.00
37764;BME280;23602;51.084;7.090;2023-01-05T02:47:06;100288.09;;;9.65;100.00
37764;BME280;23602;51.084;7.090;2023-01-05T02:49:35;100290.38;;;9.74;100.00
37764;BME280;23602;51.084;7.090;2023-01-05T02:52:03;100296.59;;;9.75;100.00
37764;BME280;23602;51.084;7.090;2023-01-05T02:57:11;100287.91;;;9.73;100.00
37764;BME280;23602;51.084;7.090;2023-01-05T02:59:46;100301.13;;;9.68;100.00
37764;BME280;23602;51.084;7.090;2023-01-05T03:02:19;100298.25;;;9.76;100.00
37764;BME280;23602;51.084;7.090;2023-01-05T03:04:52;100301.34;;;9.73;100.00
37764;BME280;23602;51.084;7.090;2023-01-05T03:07:26;100292.66;;;9.71;100.00
37764;BME280;23602;51.084;7.090;2023-01-05T03:09:53;100300.72;;;9.71;100.00
37764;BME280;23602;51.084;7.090;2023-01-05T03:12:28;100295.53;;;9.69;100.00
37764;BME280;23602;51.084;7.090;2023-01-05T03:15:19;100294.28;;;9.65;100.00
37764;BME280;23602;51.084;7.090;2023-01-05T03:18:07;100296.75;;;9.67;100.00
37764;BME280;23602;51.084;7.090;2023-01-05T03:20:35;100292.63;;;9.64;100.00
37764;BME280;23602;51.084;7.090;2023-01-05T03:23:05;100295.94;;;9.66;100.00
37764;BME280;23602;51.084;7.090;2023-01-05T03:25:52;100299.84;;;9.64;100.00
37764;BME280;23602;51.084;7.090;2023-01-05T03:31:46;100302.28;;;9.59;100.00
37764;BME280;23602;51.084;7.090;2023-01-05T03:37:46;100299.84;;;9.64;100.00
37764;BME280;23602;51.084;7.090;2023-01-05T03:40:38;100301.66;;;9.57;100.00
37764;BME280;23602;51.084;7.090;2023-01-05T03:43:03;100295.50;;;9.63;100.00
37764;BME280;23602;51.084;7.090;2023-01-05T03:45:39;100301.94;;;9.68;100.00
37764;BME280;23602;51.084;7.090;2023-01-05T03:48:05;100287.47;;;9.69;100.00
37764;BME280;23602;51.084;7.090;2023-01-05T03:50:39;100282.28;;;9.61;100.00
37764;BME280;23602;51.084;7.090;2023-01-05T03:53:05;100297.19;;;9.70;100.00
37764;BME280;23602;51.084;7.090;2023-01-05T03:55:32;100304.19;;;9.65;100.00
37764;BME280;23602;51.084;7.090;2023-01-05T03:57:57;100323.81;;;9.65;100.00
37764;BME280;23602;51.084;7.090;2023-01-05T04:00:23;100321.66;;;9.54;100.00
37764;BME280;23602;51.084;7.090;2023-01-05T04:02:50;100332.16;;;9.49;100.00
37764;BME280;23602;51.084;7.090;2023-01-05T04:05:15;100350.13;;;9.48;100.00
37764;BME280;23602;51.084;7.090;2023-01-05T04:07:40;100359.84;;;9.49;100.00
37764;BME280;23602;51.084;7.090;2023-01-05T04:10:06;100374.84;;;9.44;100.00
37764;BME280;23602;51.084;7.090;2023-01-05T04:12:31;100359.75;;;9.36;100.00
37764;BME280;23602;51.084;7.090;2023-01-05T04:14:57;100357.28;;;9.35;100.00
37764;BME280;23602;51.084;7.090;2023-01-05T04:17:22;100369.06;;;9.40;100.00
37764;BME280;23602;51.084;7.090;2023-01-05T04:19:47;100364.50;;;9.41;100.00
37764;BME280;23602;51.084;7.090;2023-01-05T04:22:13;100371.94;;;9.39;100.00
37764;BME280;23602;51.084;7.090;2023-01-05T04:24:38;100352.91;;;9.34;100.00
37764;BME280;23602;51.084;7.090;2023-01-05T04:27:03;100366.31;;;9.34;100.00
37764;BME280;23602;51.084;7.090;2023-01-05T04:29:29;100379.56;;;9.35;100.00
37764;BME280;23602;51.084;7.090;2023-01-05T04:31:54;100382.41;;;9.34;100.00
37764;BME280;23602;51.084;7.090;2023-01-05T04:34:20;100357.63;;;9.25;100.00
37764;BME280;23602;51.084;7.090;2023-01-05T04:36:45;100374.63;;;9.39;100.00
37764;BME280;23602;51.084;7.090;2023-01-05T04:39:12;100377.50;;;9.37;100.00
37764;BME280;23602;51.084;7.090;2023-01-05T04:41:37;100357.28;;;9.35;100.00
37764;BME280;23602;51.084;7.090;2023-01-05T04:44:03;100371.75;;;9.40;100.00
37764;BME280;23602;51.084;7.090;2023-01-05T04:46:28;100376.47;;;9.38;100.00
37764;BME280;23602;51.084;7.090;2023-01-05T04:48:53;100372.53;;;9.34;100.00
37764;BME280;23602;51.084;7.090;2023-01-05T04:51:22;100383.50;;;9.39;100.00
37764;BME280;23602;51.084;7.090;2023-01-05T04:53:48;100390.91;;;9.37;100.00
37764;BME280;23602;51.084;7.090;2023-01-05T04:56:13;100392.91;;;9.29;100.00
37764;BME280;23602;51.084;7.090;2023-01-05T04:58:38;100396.03;;;9.32;100.00
37764;BME280;23602;51.084;7.090;2023-01-05T05:01:03;100396.63;;;9.28;100.00
37764;BME280;23602;51.084;7.090;2023-01-05T05:03:29;100398.03;;;9.24;100.00
37764;BME280;23602;51.084;7.090;2023-01-05T05:05:54;100412.25;;;9.24;100.00
37764;BME280;23602;51.084;7.090;2023-01-05T05:08:20;100405.31;;;9.30;100.00
37764;BME280;23602;51.084;7.090;2023-01-05T05:10:50;100409.84;;;9.29;100.00
37764;BME280;23602;51.084;7.090;2023-01-05T05:13:15;100406.03;;;9.17;100.00
37764;BME280;23602;51.084;7.090;2023-01-05T05:15:43;100407.34;;;9.28;100.00
37764;BME280;23602;51.084;7.090;2023-01-05T05:18:08;100409.34;;;9.19;100.00
37764;BME280;23602;51.084;7.090;2023-01-05T05:20:34;100407.91;;;9.23;100.00
37764;BME280;23602;51.084;7.090;2023-01-05T05:22:59;100411.63;;;9.22;100.00
37764;BME280;23602;51.084;7.090;2023-01-05T05:25:24;100411.78;;;9.14;100.00
37764;BME280;23602;51.084;7.090;2023-01-05T05:27:51;100410.72;;;9.15;100.00
37764;BME280;23602;51.084;7.090;2023-01-05T05:30:16;100431.66;;;9.26;100.00
37764;BME280;23602;51.084;7.090;2023-01-05T05:32:42;100417.59;;;9.18;100.00
37764;BME280;23602;51.084;7.090;2023-01-05T05:35:07;100427.28;;;9.19;100.00
37764;BME280;23602;51.084;7.090;2023-01-05T05:37:33;100440.28;;;9.22;100.00
37764;BME280;23602;51.084;7.090;2023-01-05T05:39:58;100437.00;;;9.20;100.00
37764;BME280;23602;51.084;7.090;2023-01-05T05:42:23;100428.03;;;9.13;100.00
37764;BME280;23602;51.084;7.090;2023-01-05T05:44:49;100449.34;;;9.21;100.00
37764;BME280;23602;51.084;7.090;2023-01-05T05:47:14;100457.00;;;9.24;100.00
37764;BME280;23602;51.084;7.090;2023-01-05T05:49:39;100450.81;;;9.23;100.00
37764;BME280;23602;51.084;7.090;2023-01-05T05:52:12;100444.81;;;9.21;100.00
37764;BME280;23602;51.084;7.090;2023-01-05T05:54:39;100438.63;;;9.21;100.00
37764;BME280;23602;51.084;7.090;2023-01-05T05:57:04;100435.06;;;9.14;100.00
37764;BME280;23602;51.084;7.090;2023-01-05T05:59:33;100444.44;;;9.24;100.00
37764;BME280;23602;51.084;7.090;2023-01-05T06:01:58;100436.16;;;9.19;100.00
37764;BME280;23602;51.084;7.090;2023-01-05T06:04:24;100430.53;;;9.14;100.00
37764;BME280;23602;51.084;7.090;2023-01-05T06:06:50;100435.94;;;9.21;100.00
37764;BME280;23602;51.084;7.090;2023-01-05T06:09:15;100439.09;;;9.24;100.00
37764;BME280;23602;51.084;7.090;2023-01-05T06:11:41;100439.84;;;9.18;100.00
37764;BME280;23602;51.084;7.090;2023-01-05T06:14:08;100440.88;;;9.17;100.00
37764;BME280;23602;51.084;7.090;2023-01-05T06:16:37;100453.97;;;9.27;100.00
37764;BME280;23602;51.084;7.090;2023-01-05T06:19:02;100472.78;;;9.33;100.00
37764;BME280;23602;51.084;7.090;2023-01-05T06:21:31;100472.34;;;9.30;100.00
37764;BME280;23602;51.084;7.090;2023-01-05T06:23:59;100467.56;;;9.25;100.00
37764;BME280;23602;51.084;7.090;2023-01-05T06:26:24;100471.88;;;9.26;100.00
37764;BME280;23602;51.084;7.090;2023-01-05T06:28:50;100478.13;;;9.33;100.00
37764;BME280;23602;51.084;7.090;2023-01-05T06:31:15;100462.75;;;9.21;100.00
37764;BME280;23602;51.084;7.090;2023-01-05T06:33:40;100475.63;;;9.25;100.00
37764;BME280;23602;51.084;7.090;2023-01-05T06:36:08;100476.81;;;9.23;100.00
37764;BME280;23602;51.084;7.090;2023-01-05T06:38:39;100481.94;;;9.18;100.00
37764;BME280;23602;51.084;7.090;2023-01-05T06:41:22;100482.13;;;9.16;100.00
37764;BME280;23602;51.084;7.090;2023-01-05T06:43:47;100510.78;;;9.16;100.00
37764;BME280;23602;51.084;7.090;2023-01-05T06:46:15;100516.78;;;9.18;100.00
37764;BME280;23602;51.084;7.090;2023-01-05T06:48:40;100506.75;;;9.05;100.00
37764;BME280;23602;51.084;7.090;2023-01-05T06:51:06;100512.34;;;9.10;100.00
37764;BME280;23602;51.084;7.090;2023-01-05T06:53:39;100509.63;;;9.04;100.00
37764;BME280;23602;51.084;7.090;2023-01-05T06:56:05;100524.97;;;9.10;100.00
37764;BME280;23602;51.084;7.090;2023-01-05T06:58:31;100519.63;;;8.95;100.00
37764;BME280;23602;51.084;7.090;2023-01-05T07:00:56;100546.56;;;9.08;100.00
37764;BME280;23602;51.084;7.090;2023-01-05T07:03:22;100544.94;;;9.07;100.00
37764;BME280;23602;51.084;7.090;2023-01-05T07:05:58;100529.97;;;8.98;100.00
37764;BME280;23602;51.084;7.090;2023-01-05T07:08:23;100544.72;;;9.09;100.00
37764;BME280;23602;51.084;7.090;2023-01-05T07:10:49;100538.22;;;8.97;100.00
37764;BME280;23602;51.084;7.090;2023-01-05T07:13:15;100540.06;;;8.96;100.00
37764;BME280;23602;51.084;7.090;2023-01-05T07:15:41;100533.44;;;8.92;100.00
37764;BME280;23602;51.084;7.090;2023-01-05T07:18:07;100559.72;;;9.03;100.00
37764;BME280;23602;51.084;7.090;2023-01-05T07:20:32;100559.09;;;9.01;100.00
37764;BME280;23602;51.084;7.090;2023-01-05T07:23:25;100564.50;;;9.08;100.00
37764;BME280;23602;51.084;7.090;2023-01-05T07:26:03;100548.38;;;9.01;100.00
37764;BME280;23602;51.084;7.090;2023-01-05T07:28:29;100546.69;;;9.00;100.00
37764;BME280;23602;51.084;7.090;2023-01-05T07:30:59;100551.03;;;9.01;100.00
37764;BME280;23602;51.084;7.090;2023-01-05T07:33:24;100565.72;;;9.05;100.00
37764;BME280;23602;51.084;7.090;2023-01-05T07:35:50;100570.13;;;9.13;100.00
37764;BME280;23602;51.084;7.090;2023-01-05T07:38:15;100554.34;;;9.03;100.00
37764;BME280;23602;51.084;7.090;2023-01-05T07:40:40;100573.84;;;9.12;100.00
37764;BME280;23602;51.084;7.090;2023-01-05T07:43:06;100567.00;;;9.09;100.00
37764;BME280;23602;51.084;7.090;2023-01-05T07:45:31;100578.00;;;9.14;100.00
37764;BME280;23602;51.084;7.090;2023-01-05T07:47:56;100573.66;;;9.13;100.00
37764;BME280;23602;51.084;7.090;2023-01-05T07:50:27;100577.81;;;9.16;100.00
37764;BME280;23602;51.084;7.090;2023-01-05T07:52:52;100577.44;;;9.19;100.00
37764;BME280;23602;51.084;7.090;2023-01-05T07:55:17;100577.44;;;9.19;100.00
37764;BME280;23602;51.084;7.090;2023-01-05T07:57:43;100572.63;;;9.14;100.00
37764;BME280;23602;51.084;7.090;2023-01-05T08:00:11;100577.25;;;9.20;100.00
37764;BME280;23602;51.084;7.090;2023-01-05T08:02:38;100576.59;;;9.18;100.00
37764;BME280;23602;51.084;7.090;2023-01-05T08:05:03;100577.44;;;9.19;100.00
37764;BME280;23602;51.084;7.090;2023-01-05T08:07:29;100582.63;;;9.20;100.00
37764;BME280;23602;51.084;7.090;2023-01-05T08:09:54;100583.69;;;9.26;100.00
37764;BME280;23602;51.084;7.090;2023-01-05T08:12:38;100586.38;;;9.26;100.00
37764;BME280;23602;51.084;7.090;2023-01-05T08:15:27;100593.59;;;9.25;100.00
37764;BME280;23602;51.084;7.090;2023-01-05T08:17:52;100590.72;;;9.27;100.00
37764;BME280;23602;51.084;7.090;2023-01-05T08:20:17;100591.56;;;9.27;100.00
37764;BME280;23602;51.084;7.090;2023-01-05T08:22:42;100594.88;;;9.29;100.00
37764;BME280;23602;51.084;7.090;2023-01-05T08:25:08;100584.59;;;9.33;100.00
37764;BME280;23602;51.084;7.090;2023-01-05T08:27:34;100586.25;;;9.34;100.00
37764;BME280;23602;51.084;7.090;2023-01-05T08:29:59;100586.19;;;9.27;100.00
37764;BME280;23602;51.084;7.090;2023-01-05T08:32:24;100592.44;;;9.34;100.00
37764;BME280;23602;51.084;7.090;2023-01-05T08:34:50;100602.97;;;9.36;100.00
37764;BME280;23602;51.084;7.090;2023-01-05T08:37:15;100591.50;;;9.42;100.00
37764;BME280;23602;51.084;7.090;2023-01-05T08:39:44;100574.56;;;9.41;100.00
37764;BME280;23602;51.084;7.090;2023-01-05T08:42:09;100576.88;;;9.44;100.00
37764;BME280;23602;51.084;7.090;2023-01-05T08:44:34;100570.28;;;9.47;100.00
37764;BME280;23602;51.084;7.090;2023-01-05T08:47:00;100566.19;;;9.51;100.00
37764;BME280;23602;51.084;7.090;2023-01-05T08:49:26;100567.03;;;9.51;100.00
37764;BME280;23602;51.084;7.090;2023-01-05T08:51:51;100576.28;;;9.49;100.00
37764;BME280;23602;51.084;7.090;2023-01-05T08:54:16;100581.84;;;9.47;100.00
37764;BME280;23602;51.084;7.090;2023-01-05T08:56:42;100581.03;;;9.47;100.00
37764;BME280;23602;51.084;7.090;2023-01-05T08:59:11;100587.81;;;9.43;100.00
37764;BME280;23602;51.084;7.090;2023-01-05T09:01:43;100589.28;;;9.45;100.00
37764;BME280;23602;51.084;7.090;2023-01-05T09:04:08;100592.22;;;9.50;100.00
37764;BME280;23602;51.084;7.090;2023-01-05T09:06:34;100595.53;;;9.52;100.00
37764;BME280;23602;51.084;7.090;2023-01-05T09:09:03;100601.53;;;9.54;100.00
37764;BME280;23602;51.084;7.090;2023-01-05T09:11:32;100601.72;;;9.53;100.00
37764;BME280;23602;51.084;7.090;2023-01-05T09:13:59;100595.69;;;9.51;100.00
37764;BME280;23602;51.084;7.090;2023-01-05T09:16:29;100603.84;;;9.58;100.00
37764;BME280;23602;51.084;7.090;2023-01-05T09:18:56;100597.03;;;9.62;100.00
37764;BME280;23602;51.084;7.090;2023-01-05T09:21:22;100593.34;;;9.63;100.00
37764;BME280;23602;51.084;7.090;2023-01-05T09:24:00;100591.50;;;9.63;100.00
37764;BME280;23602;51.084;7.090;2023-01-05T09:26:26;100614.22;;;9.67;100.00
37764;BME280;23602;51.084;7.090;2023-01-05T09:28:51;100617.13;;;9.66;100.00
37764;BME280;23602;51.084;7.090;2023-01-05T09:31:19;100603.13;;;9.70;100.00
37764;BME280;23602;51.084;7.090;2023-01-05T09:33:45;100610.97;;;9.72;100.00
37764;BME280;23602;51.084;7.090;2023-01-05T09:36:12;100608.91;;;9.74;100.00
37764;BME280;23602;51.084;7.090;2023-01-05T09:38:39;100609.38;;;9.77;100.00
37764;BME280;23602;51.084;7.090;2023-01-05T09:41:06;100604.06;;;9.84;100.00
37764;BME280;23602;51.084;7.090;2023-01-05T09:43:37;100610.50;;;9.89;100.00
37764;BME280;23602;51.084;7.090;2023-01-05T09:46:09;100624.34;;;9.86;100.00
37764;BME280;23602;51.084;7.090;2023-01-05T09:48:39;100590.78;;;9.76;100.00
37764;BME280;23602;51.084;7.090;2023-01-05T09:51:08;100613.00;;;9.91;100.00
37764;BME280;23602;51.084;7.090;2023-01-05T09:53:35;100620.59;;;9.87;100.00
37764;BME280;23602;51.084;7.090;2023-01-05T09:56:01;100630.91;;;9.84;100.00
37764;BME280;23602;51.084;7.090;2023-01-05T09:58:30;100622.41;;;9.80;100.00
37764;BME280;23602;51.084;7.090;2023-01-05T10:01:08;100620.56;;;9.81;100.00
37764;BME280;23602;51.084;7.090;2023-01-05T10:03:41;100629.50;;;9.88;100.00
37764;BME280;23602;51.084;7.090;2023-01-05T10:06:14;100621.81;;;9.85;100.00
37764;BME280;23602;51.084;7.090;2023-01-05T10:08:42;100630.72;;;9.85;100.00
37764;BME280;23602;51.084;7.090;2023-01-05T10:11:18;100624.72;;;9.83;100.00
37764;BME280;23602;51.084;7.090;2023-01-05T10:14:18;100617.53;;;9.90;100.00
37764;BME280;23602;51.084;7.090;2023-01-05T10:16:50;100628.91;;;9.92;100.00
37764;BME280;23602;51.084;7.090;2023-01-05T10:19:18;100633.06;;;9.95;100.00
37764;BME280;23602;51.084;7.090;2023-01-05T10:21:56;100633.53;;;9.98;100.00
37764;BME280;23602;51.084;7.090;2023-01-05T10:24:46;100632.31;;;10.01;100.00
37764;BME280;23602;51.084;7.090;2023-01-05T10:27:56;100621.03;;;10.12;100.00
37764;BME280;23602;51.084;7.090;2023-01-05T10:30:15;100610.97;;;10.14;100.00
37764;BME280;23602;51.084;7.090;2023-01-05T10:32:59;100618.75;;;10.09;100.00
37764;BME280;23602;51.084;7.090;2023-01-05T10:43:28;100638.06;;;9.98;100.00
37764;BME280;23602;51.084;7.090;2023-01-05T10:46:14;100640.09;;;9.96;100.00
37764;BME280;23602;51.084;7.090;2023-01-05T10:48:46;100649.25;;;10.01;100.00
37764;BME280;23602;51.084;7.090;2023-01-05T10:51:12;100635.03;;;10.07;100.00
37764;BME280;23602;51.084;7.090;2023-01-05T10:53:41;100632.16;;;10.09;100.00
37764;BME280;23602;51.084;7.090;2023-01-05T10:56:15;100636.50;;;10.10;100.00
37764;BME280;23602;51.084;7.090;2023-01-05T10:59:04;100633.91;;;10.17;100.00
37764;BME280;23602;51.084;7.090;2023-01-05T11:01:30;100612.84;;;10.20;100.00
37764;BME280;23602;51.084;7.090;2023-01-05T11:04:11;100612.16;;;10.11;100.00
37764;BME280;23602;51.084;7.090;2023-01-05T11:06:46;100630.88;;;10.26;100.00
37764;BME280;23602;51.084;7.090;2023-01-05T11:09:21;100637.94;;;10.34;100.00
37764;BME280;23602;51.084;7.090;2023-01-05T11:11:54;100631.81;;;10.40;100.00
37764;BME280;23602;51.084;7.090;2023-01-05T11:14:20;100630.72;;;10.34;100.00
37764;BME280;23602;51.084;7.090;2023-01-05T11:16:54;100610.16;;;10.20;100.00
37764;BME280;23602;51.084;7.090;2023-01-05T11:19:29;100624.63;;;10.19;100.00
37764;BME280;23602;51.084;7.090;2023-01-05T11:21:56;100626.28;;;10.20;100.00
37764;BME280;23602;51.084;7.090;2023-01-05T11:26:59;100622.50;;;10.14;100.00
37764;BME280;23602;51.084;7.090;2023-01-05T11:29:26;100632.25;;;10.15;100.00
37764;BME280;23602;51.084;7.090;2023-01-05T11:32:04;100636.19;;;10.20;100.00
37764;BME280;23602;51.084;7.090;2023-01-05T11:37:31;100633.34;;;10.28;100.00
37764;BME280;23602;51.084;7.090;2023-01-05T11:40:02;100631.47;;;10.22;100.00
37764;BME280;23602;51.084;7.090;2023-01-05T11:42:37;100644.47;;;10.25;100.00
37764;BME280;23602;51.084;7.090;2023-01-05T11:45:22;100636.25;;;10.26;100.00
37764;BME280;23602;51.084;7.090;2023-01-05T11:47:52;100629.94;;;10.40;100.00
37764;BME280;23602;51.084;7.090;2023-01-05T11:50:24;100626.06;;;10.49;100.00
37764;BME280;23602;51.084;7.090;2023-01-05T11:52:55;100605.00;;;10.53;100.00
37764;BME280;23602;51.084;7.090;2023-01-05T11:55:36;100626.94;;;10.56;100.00
37764;BME280;23602;51.084;7.090;2023-01-05T11:58:24;100618.03;;;10.56;100.00
37764;BME280;23602;51.084;7.090;2023-01-05T12:04:06;100633.16;;;10.57;100.00
37764;BME280;23602;51.084;7.090;2023-01-05T12:09:29;100621.19;;;10.66;100.00
37764;BME280;23602;51.084;7.090;2023-01-05T12:17:39;100608.38;;;10.68;100.00
37764;BME280;23602;51.084;7.090;2023-01-05T12:25:22;100600.94;;;10.63;100.00
37764;BME280;23602;51.084;7.090;2023-01-05T12:37:21;100605.59;;;10.83;100.00
37764;BME280;23602;51.084;7.090;2023-01-05T12:40:06;100615.91;;;10.79;100.00
37764;BME280;23602;51.084;7.090;2023-01-05T12:48:23;100601.06;;;10.96;100.00
37764;BME280;23602;51.084;7.090;2023-01-05T12:51:49;100599.06;;;11.11;100.00
37764;BME280;23602;51.084;7.090;2023-01-05T12:56:49;100606.91;;;11.00;100.00
37764;BME280;23602;51.084;7.090;2023-01-05T12:59:16;100623.19;;;10.92;100.00
37764;BME280;23602;51.084;7.090;2023-01-05T13:04:42;100621.81;;;10.68;100.00
37764;BME280;23602;51.084;7.090;2023-01-05T13:07:15;100620.78;;;10.62;100.00
37764;BME280;23602;51.084;7.090;2023-01-05T13:09:46;100613.75;;;10.61;100.00
37764;BME280;23602;51.084;7.090;2023-01-05T13:12:17;100618.91;;;10.63;100.00
37764;BME280;23602;51.084;7.090;2023-01-05T13:17:32;100617.03;;;10.57;100.00
37764;BME280;23602;51.084;7.090;2023-01-05T13:20:12;100617.22;;;10.55;100.00
37764;BME280;23602;51.084;7.090;2023-01-05T13:22:41;100607.91;;;10.51;100.00
37764;BME280;23602;51.084;7.090;2023-01-05T13:25:18;100613.66;;;10.48;100.00
37764;BME280;23602;51.084;7.090;2023-01-05T13:27:45;100621.09;;;10.46;100.00
37764;BME280;23602;51.084;7.090;2023-01-05T13:30:23;100619.41;;;10.45;100.00
37764;BME280;23602;51.084;7.090;2023-01-05T13:33:17;100621.31;;;10.45;100.00
37764;BME280;23602;51.084;7.090;2023-01-05T13:50:29;100624.56;;;10.74;100.00
37764;BME280;23602;51.084;7.090;2023-01-05T13:55:44;100618.16;;;10.75;100.00
37764;BME280;23602;51.084;7.090;2023-01-05T14:01:01;100617.91;;;10.70;100.00
37764;BME280;23602;51.084;7.090;2023-01-05T14:03:31;100618.09;;;10.62;100.00
37764;BME280;23602;51.084;7.090;2023-01-05T14:06:13;100629.88;;;10.61;100.00
37764;BME280;23602;51.084;7.090;2023-01-05T14:08:39;100631.94;;;10.59;100.00
37764;BME280;23602;51.084;7.090;2023-01-05T14:13:40;100634.38;;;10.54;100.00
37764;BME280;23602;51.084;7.090;2023-01-05T14:22:23;100640.63;;;10.61;100.00
37764;BME280;23602;51.084;7.090;2023-01-05T14:24:49;100634.16;;;10.56;100.00
37764;BME280;23602;51.084;7.090;2023-01-05T14:27:22;100637.09;;;10.61;100.00
37764;BME280;23602;51.084;7.090;2023-01-05T14:32:29;100632.53;;;10.55;100.00
37764;BME280;23602;51.084;7.090;2023-01-05T14:34:59;100632.94;;;10.58;100.00
37764;BME280;23602;51.084;7.090;2023-01-05T14:40:37;100636.13;;;10.41;100.00
37764;BME280;23602;51.084;7.090;2023-01-05T14:43:19;100637.81;;;10.42;100.00
37764;BME280;23602;51.084;7.090;2023-01-05T14:48:37;100640.84;;;10.32;100.00
37764;BME280;23602;51.084;7.090;2023-01-05T14:51:15;100651.97;;;10.29;100.00
37764;BME280;23602;51.084;7.090;2023-01-05T14:53:45;100652.38;;;10.26;100.00
37764;BME280;23602;51.084;7.090;2023-01-05T15:01:18;100656.69;;;10.27;100.00